Ana Sayfa
METAR-TAF:

METAR-TAF

Havaalanları :

Sierra Blanca Regional Airport

Ruidoso, New Mexico, Amerika Birleşik Devletleri

Enlem: 33-28N, Boylam: 105-32W, yükseklik: 2076 m

Güncel hava durumu gözlemi

Rapor saat 07:35 UTC de 33 dakika önce yapıldı.
Rüzgar güneydoğudan 8 kt
Sıcaklık 17°C
Nem 72%
Basınç 1029 hPa
Görüş mesafesi: 16.1 km

METAR: KSRR 220735Z AUTO 13008KT 10SM 17/12 A3038 RMK AO2 TSNO

Saat: 02:08 (08:08 UTC)


TAF: eksik

4.000'den fazla havaalanı için hava durumu gözlemleri ve tahminleri (METAR ve TAF raporları).

Kullanılabilir istasyonlar harita üzerinde sarı ve kırmızı noktalarla gösterilir.

İstasyonun adını görmek için fareyi noktanın üzerinde gezdirin.

Sonrasında hava gözlem ve tahminlerini görmek için tıklayın.

Haritayı değiştirmek için: yaklaştırmak için siyah artı işaretli yeşil düğmeye ve uzaklaştırmak için de eksi işaretli düğmeye hızla tıklayın; bitişik haritalar için yeşil okları kullanın.


METAR-TAF: